sensor_id;sensor_type;location;lat;lon;timestamp;temperature;humidity
22035;DHT22;11181;51.002;4.356;2024-01-30T00:00:07;12.80;99.90
22035;DHT22;11181;51.002;4.356;2024-01-30T00:02:35;12.70;99.90
22035;DHT22;11181;51.002;4.356;2024-01-30T00:05:02;12.70;99.90
22035;DHT22;11181;51.002;4.356;2024-01-30T00:07:29;12.70;99.90
22035;DHT22;11181;51.002;4.356;2024-01-30T00:09:57;12.80;99.90
22035;DHT22;11181;51.002;4.356;2024-01-30T00:12:24;12.70;99.90
22035;DHT22;11181;51.002;4.356;2024-01-30T00:14:52;12.60;99.90
22035;DHT22;11181;51.002;4.356;2024-01-30T00:17:19;12.70;99.90
22035;DHT22;11181;51.002;4.356;2024-01-30T00:19:46;12.70;99.90
22035;DHT22;11181;51.002;4.356;2024-01-30T00:22:13;12.70;99.90
22035;DHT22;11181;51.002;4.356;2024-01-30T00:24:40;12.70;99.90
22035;DHT22;11181;51.002;4.356;2024-01-30T00:27:09;12.70;99.90
22035;DHT22;11181;51.002;4.356;2024-01-30T00:29:36;12.60;99.90
22035;DHT22;11181;51.002;4.356;2024-01-30T00:32:04;12.70;99.90
22035;DHT22;11181;51.002;4.356;2024-01-30T00:34:31;12.70;99.90
22035;DHT22;11181;51.002;4.356;2024-01-30T00:36:58;12.70;99.90
22035;DHT22;11181;51.002;4.356;2024-01-30T00:39:25;12.80;99.90
22035;DHT22;11181;51.002;4.356;2024-01-30T00:41:52;12.70;99.90
22035;DHT22;11181;51.002;4.356;2024-01-30T00:44:20;12.60;99.90
22035;DHT22;11181;51.002;4.356;2024-01-30T00:46:47;12.60;99.90
22035;DHT22;11181;51.002;4.356;2024-01-30T00:49:14;12.70;99.90
22035;DHT22;11181;51.002;4.356;2024-01-30T00:51:41;12.70;99.90
22035;DHT22;11181;51.002;4.356;2024-01-30T00:54:08;12.80;99.90
22035;DHT22;11181;51.002;4.356;2024-01-30T00:56:35;12.80;99.90
22035;DHT22;11181;51.002;4.356;2024-01-30T00:59:02;12.90;99.90
22035;DHT22;11181;51.002;4.356;2024-01-30T01:01:30;13.00;99.90
22035;DHT22;11181;51.002;4.356;2024-01-30T01:03:57;13.10;99.90
22035;DHT22;11181;51.002;4.356;2024-01-30T01:06:24;13.00;99.90
22035;DHT22;11181;51.002;4.356;2024-01-30T01:08:51;13.00;99.90
22035;DHT22;11181;51.002;4.356;2024-01-30T01:11:18;12.90;99.90
22035;DHT22;11181;51.002;4.356;2024-01-30T01:13:45;12.90;99.90
22035;DHT22;11181;51.002;4.356;2024-01-30T01:16:12;12.90;99.90
22035;DHT22;11181;51.002;4.356;2024-01-30T01:18:41;12.80;99.90
22035;DHT22;11181;51.002;4.356;2024-01-30T01:21:08;12.80;99.90
22035;DHT22;11181;51.002;4.356;2024-01-30T01:23:35;12.90;99.90
22035;DHT22;11181;51.002;4.356;2024-01-30T01:26:02;12.80;99.90
22035;DHT22;11181;51.002;4.356;2024-01-30T01:28:29;12.80;99.90
22035;DHT22;11181;51.002;4.356;2024-01-30T01:30:56;12.80;99.90
22035;DHT22;11181;51.002;4.356;2024-01-30T01:33:30;12.80;99.90
22035;DHT22;11181;51.002;4.356;2024-01-30T01:35:59;12.80;99.90
22035;DHT22;11181;51.002;4.356;2024-01-30T01:38:28;12.80;99.90
22035;DHT22;11181;51.002;4.356;2024-01-30T01:40:55;12.80;99.90
22035;DHT22;11181;51.002;4.356;2024-01-30T01:43:22;12.80;99.90
22035;DHT22;11181;51.002;4.356;2024-01-30T01:45:49;12.70;99.90
22035;DHT22;11181;51.002;4.356;2024-01-30T01:48:16;12.60;99.90
22035;DHT22;11181;51.002;4.356;2024-01-30T01:50:43;12.70;99.90
22035;DHT22;11181;51.002;4.356;2024-01-30T01:53:12;12.80;99.90
22035;DHT22;11181;51.002;4.356;2024-01-30T01:55:39;12.80;99.90
22035;DHT22;11181;51.002;4.356;2024-01-30T01:58:07;12.80;99.90
22035;DHT22;11181;51.002;4.356;2024-01-30T02:00:36;12.80;99.90
22035;DHT22;11181;51.002;4.356;2024-01-30T02:03:06;12.70;99.90
22035;DHT22;11181;51.002;4.356;2024-01-30T02:05:33;12.70;99.90
22035;DHT22;11181;51.002;4.356;2024-01-30T02:08:01;12.70;99.90
22035;DHT22;11181;51.002;4.356;2024-01-30T02:10:30;12.80;99.90
22035;DHT22;11181;51.002;4.356;2024-01-30T02:12:57;12.80;99.90
22035;DHT22;11181;51.002;4.356;2024-01-30T02:15:24;12.80;99.90
22035;DHT22;11181;51.002;4.356;2024-01-30T02:17:51;12.80;99.90
22035;DHT22;11181;51.002;4.356;2024-01-30T02:20:17;12.80;99.90
22035;DHT22;11181;51.002;4.356;2024-01-30T02:22:46;12.80;99.90
22035;DHT22;11181;51.002;4.356;2024-01-30T02:25:13;12.80;99.90
22035;DHT22;11181;51.002;4.356;2024-01-30T02:27:40;12.80;99.90
22035;DHT22;11181;51.002;4.356;2024-01-30T02:30:08;12.80;99.90
22035;DHT22;11181;51.002;4.356;2024-01-30T02:32:35;12.80;99.90
22035;DHT22;11181;51.002;4.356;2024-01-30T02:35:02;12.90;99.90
22035;DHT22;11181;51.002;4.356;2024-01-30T02:37:29;13.00;99.90
22035;DHT22;11181;51.002;4.356;2024-01-30T02:39:57;13.00;99.90
22035;DHT22;11181;51.002;4.356;2024-01-30T02:42:24;13.00;99.90
22035;DHT22;11181;51.002;4.356;2024-01-30T02:44:51;12.80;99.90
22035;DHT22;11181;51.002;4.356;2024-01-30T02:47:18;12.80;99.90
22035;DHT22;11181;51.002;4.356;2024-01-30T02:49:45;12.80;99.90
22035;DHT22;11181;51.002;4.356;2024-01-30T02:52:12;12.80;99.90
22035;DHT22;11181;51.002;4.356;2024-01-30T02:54:38;12.70;99.90
22035;DHT22;11181;51.002;4.356;2024-01-30T02:57:06;12.70;99.90
22035;DHT22;11181;51.002;4.356;2024-01-30T02:59:33;12.80;99.90
22035;DHT22;11181;51.002;4.356;2024-01-30T03:02:01;12.90;99.90
22035;DHT22;11181;51.002;4.356;2024-01-30T03:04:28;12.90;99.90
22035;DHT22;11181;51.002;4.356;2024-01-30T03:06:55;13.00;99.90
22035;DHT22;11181;51.002;4.356;2024-01-30T03:09:22;12.90;99.90
22035;DHT22;11181;51.002;4.356;2024-01-30T03:11:49;12.90;99.90
22035;DHT22;11181;51.002;4.356;2024-01-30T03:14:17;12.90;99.90
22035;DHT22;11181;51.002;4.356;2024-01-30T03:16:44;12.90;99.90
22035;DHT22;11181;51.002;4.356;2024-01-30T03:19:11;12.80;99.90
22035;DHT22;11181;51.002;4.356;2024-01-30T03:21:38;12.80;99.90
22035;DHT22;11181;51.002;4.356;2024-01-30T03:24:05;12.80;99.90
22035;DHT22;11181;51.002;4.356;2024-01-30T03:26:32;12.90;99.90
22035;DHT22;11181;51.002;4.356;2024-01-30T03:28:59;12.90;99.90
22035;DHT22;11181;51.002;4.356;2024-01-30T03:31:28;12.90;99.90
22035;DHT22;11181;51.002;4.356;2024-01-30T03:33:55;12.90;99.90
22035;DHT22;11181;51.002;4.356;2024-01-30T03:36:22;12.90;99.90
22035;DHT22;11181;51.002;4.356;2024-01-30T03:38:49;13.00;99.90
22035;DHT22;11181;51.002;4.356;2024-01-30T03:41:15;12.90;99.90
22035;DHT22;11181;51.002;4.356;2024-01-30T03:43:42;13.00;99.90
22035;DHT22;11181;51.002;4.356;2024-01-30T03:46:11;12.90;99.90
22035;DHT22;11181;51.002;4.356;2024-01-30T03:48:40;12.90;99.90
22035;DHT22;11181;51.002;4.356;2024-01-30T03:51:07;12.90;99.90
22035;DHT22;11181;51.002;4.356;2024-01-30T03:53:34;13.00;99.90
22035;DHT22;11181;51.002;4.356;2024-01-30T03:56:01;13.00;99.90
22035;DHT22;11181;51.002;4.356;2024-01-30T03:58:28;13.00;99.90
22035;DHT22;11181;51.002;4.356;2024-01-30T04:00:55;12.90;99.90
22035;DHT22;11181;51.002;4.356;2024-01-30T04:03:22;12.90;99.90
22035;DHT22;11181;51.002;4.356;2024-01-30T04:05:51;12.90;99.90
22035;DHT22;11181;51.002;4.356;2024-01-30T04:08:18;13.00;99.90
22035;DHT22;11181;51.002;4.356;2024-01-30T04:10:45;13.00;99.90
22035;DHT22;11181;51.002;4.356;2024-01-30T04:13:12;12.90;99.90
22035;DHT22;11181;51.002;4.356;2024-01-30T04:15:39;12.90;99.90
22035;DHT22;11181;51.002;4.356;2024-01-30T04:18:06;13.00;99.90
22035;DHT22;11181;51.002;4.356;2024-01-30T04:20:33;13.00;99.90
22035;DHT22;11181;51.002;4.356;2024-01-30T04:23:02;13.00;99.90
22035;DHT22;11181;51.002;4.356;2024-01-30T04:25:29;13.10;99.90
22035;DHT22;11181;51.002;4.356;2024-01-30T04:27:55;12.90;99.90
22035;DHT22;11181;51.002;4.356;2024-01-30T04:30:22;12.90;99.90
22035;DHT22;11181;51.002;4.356;2024-01-30T04:32:49;12.80;99.90
22035;DHT22;11181;51.002;4.356;2024-01-30T04:35:16;12.70;99.90
22035;DHT22;11181;51.002;4.356;2024-01-30T04:37:43;12.80;99.90
22035;DHT22;11181;51.002;4.356;2024-01-30T04:40:12;12.70;99.90
22035;DHT22;11181;51.002;4.356;2024-01-30T04:42:39;12.70;99.90
22035;DHT22;11181;51.002;4.356;2024-01-30T04:45:06;12.70;99.90
22035;DHT22;11181;51.002;4.356;2024-01-30T04:47:33;12.70;99.90
22035;DHT22;11181;51.002;4.356;2024-01-30T04:50:01;12.70;99.90
22035;DHT22;11181;51.002;4.356;2024-01-30T04:52:30;12.80;99.90
22035;DHT22;11181;51.002;4.356;2024-01-30T04:54:57;12.70;99.90
22035;DHT22;11181;51.002;4.356;2024-01-30T04:57:25;12.80;99.90
22035;DHT22;11181;51.002;4.356;2024-01-30T04:59:52;12.80;99.90
22035;DHT22;11181;51.002;4.356;2024-01-30T05:02:19;12.70;99.90
22035;DHT22;11181;51.002;4.356;2024-01-30T05:04:46;12.60;99.90
22035;DHT22;11181;51.002;4.356;2024-01-30T05:07:13;12.70;99.90
22035;DHT22;11181;51.002;4.356;2024-01-30T05:09:39;12.80;99.90
22035;DHT22;11181;51.002;4.356;2024-01-30T05:12:07;12.70;99.90
22035;DHT22;11181;51.002;4.356;2024-01-30T05:14:35;12.70;99.90
22035;DHT22;11181;51.002;4.356;2024-01-30T05:17:02;12.70;99.90
22035;DHT22;11181;51.002;4.356;2024-01-30T05:19:29;12.80;99.90
22035;DHT22;11181;51.002;4.356;2024-01-30T05:21:56;12.70;99.90
22035;DHT22;11181;51.002;4.356;2024-01-30T05:24:23;12.60;99.90
22035;DHT22;11181;51.002;4.356;2024-01-30T05:26:50;12.60;99.90
22035;DHT22;11181;51.002;4.356;2024-01-30T05:29:17;12.50;99.90
22035;DHT22;11181;51.002;4.356;2024-01-30T05:31:45;12.60;99.90
22035;DHT22;11181;51.002;4.356;2024-01-30T05:34:12;12.50;99.90
22035;DHT22;11181;51.002;4.356;2024-01-30T05:36:39;12.50;99.90
22035;DHT22;11181;51.002;4.356;2024-01-30T05:39:05;12.50;99.90
22035;DHT22;11181;51.002;4.356;2024-01-30T05:41:32;12.60;99.90
22035;DHT22;11181;51.002;4.356;2024-01-30T05:43:59;12.40;99.90
22035;DHT22;11181;51.002;4.356;2024-01-30T05:46:26;12.50;99.90
22035;DHT22;11181;51.002;4.356;2024-01-30T05:48:54;12.60;99.90
22035;DHT22;11181;51.002;4.356;2024-01-30T05:51:21;12.60;99.90
22035;DHT22;11181;51.002;4.356;2024-01-30T05:53:48;12.60;99.90
22035;DHT22;11181;51.002;4.356;2024-01-30T05:56:15;12.60;99.90
22035;DHT22;11181;51.002;4.356;2024-01-30T05:58:42;12.50;99.90
22035;DHT22;11181;51.002;4.356;2024-01-30T06:01:09;12.60;99.90
22035;DHT22;11181;51.002;4.356;2024-01-30T06:03:36;12.60;99.90
22035;DHT22;11181;51.002;4.356;2024-01-30T06:06:06;12.50;99.90
22035;DHT22;11181;51.002;4.356;2024-01-30T06:08:32;12.50;99.90
22035;DHT22;11181;51.002;4.356;2024-01-30T06:10:59;12.50;99.90
22035;DHT22;11181;51.002;4.356;2024-01-30T06:13:27;12.50;99.90
22035;DHT22;11181;51.002;4.356;2024-01-30T06:15:57;12.30;99.90
22035;DHT22;11181;51.002;4.356;2024-01-30T06:18:24;12.40;99.90
22035;DHT22;11181;51.002;4.356;2024-01-30T06:20:52;12.40;99.90
22035;DHT22;11181;51.002;4.356;2024-01-30T06:23:20;12.40;99.90
22035;DHT22;11181;51.002;4.356;2024-01-30T06:25:47;12.40;99.90
22035;DHT22;11181;51.002;4.356;2024-01-30T06:28:14;12.50;99.90
22035;DHT22;11181;51.002;4.356;2024-01-30T06:30:41;12.60;99.90
22035;DHT22;11181;51.002;4.356;2024-01-30T06:33:11;12.60;99.90
22035;DHT22;11181;51.002;4.356;2024-01-30T06:35:40;12.70;99.90
22035;DHT22;11181;51.002;4.356;2024-01-30T06:38:06;12.70;99.90
22035;DHT22;11181;51.002;4.356;2024-01-30T06:40:36;12.60;99.90
22035;DHT22;11181;51.002;4.356;2024-01-30T06:43:03;12.50;99.90
22035;DHT22;11181;51.002;4.356;2024-01-30T06:45:30;12.60;99.90
22035;DHT22;11181;51.002;4.356;2024-01-30T06:47:57;12.50;99.90
22035;DHT22;11181;51.002;4.356;2024-01-30T06:50:24;12.40;99.90
22035;DHT22;11181;51.002;4.356;2024-01-30T06:52:51;12.30;99.90
22035;DHT22;11181;51.002;4.356;2024-01-30T06:55:18;12.30;99.90
22035;DHT22;11181;51.002;4.356;2024-01-30T06:57:46;12.20;99.90
22035;DHT22;11181;51.002;4.356;2024-01-30T07:00:14;12.20;99.90
22035;DHT22;11181;51.002;4.356;2024-01-30T07:02:41;12.40;99.90
22035;DHT22;11181;51.002;4.356;2024-01-30T07:05:09;12.40;99.90
22035;DHT22;11181;51.002;4.356;2024-01-30T07:07:36;12.50;99.90
22035;DHT22;11181;51.002;4.356;2024-01-30T07:10:04;12.50;99.90
22035;DHT22;11181;51.002;4.356;2024-01-30T07:12:31;12.60;99.90
22035;DHT22;11181;51.002;4.356;2024-01-30T07:14:59;12.60;99.90
22035;DHT22;11181;51.002;4.356;2024-01-30T07:17:26;12.50;99.90
22035;DHT22;11181;51.002;4.356;2024-01-30T07:19:53;12.60;99.90
22035;DHT22;11181;51.002;4.356;2024-01-30T07:22:20;12.60;99.90
22035;DHT22;11181;51.002;4.356;2024-01-30T07:24:47;12.60;99.90
22035;DHT22;11181;51.002;4.356;2024-01-30T07:27:15;12.50;99.90
22035;DHT22;11181;51.002;4.356;2024-01-30T07:29:43;12.40;99.90
22035;DHT22;11181;51.002;4.356;2024-01-30T07:32:11;12.40;99.90
22035;DHT22;11181;51.002;4.356;2024-01-30T07:34:38;12.40;99.90
22035;DHT22;11181;51.002;4.356;2024-01-30T07:37:04;12.40;99.90
22035;DHT22;11181;51.002;4.356;2024-01-30T07:39:34;12.50;99.90
22035;DHT22;11181;51.002;4.356;2024-01-30T07:42:01;12.50;99.90
22035;DHT22;11181;51.002;4.356;2024-01-30T07:44:28;12.60;99.90
22035;DHT22;11181;51.002;4.356;2024-01-30T07:46:55;12.40;99.90
22035;DHT22;11181;51.002;4.356;2024-01-30T07:49:24;12.40;99.90
22035;DHT22;11181;51.002;4.356;2024-01-30T07:51:51;12.40;99.90
22035;DHT22;11181;51.002;4.356;2024-01-30T07:54:17;12.30;99.90
22035;DHT22;11181;51.002;4.356;2024-01-30T07:56:44;12.30;99.90
22035;DHT22;11181;51.002;4.356;2024-01-30T07:59:11;12.30;99.90
22035;DHT22;11181;51.002;4.356;2024-01-30T08:01:38;12.50;99.90
22035;DHT22;11181;51.002;4.356;2024-01-30T08:04:05;12.50;99.90
22035;DHT22;11181;51.002;4.356;2024-01-30T08:06:35;12.60;99.90
22035;DHT22;11181;51.002;4.356;2024-01-30T08:09:03;12.60;99.90
22035;DHT22;11181;51.002;4.356;2024-01-30T08:11:30;12.60;99.90
22035;DHT22;11181;51.002;4.356;2024-01-30T08:13:57;12.50;99.90
22035;DHT22;11181;51.002;4.356;2024-01-30T08:16:24;12.50;99.90
22035;DHT22;11181;51.002;4.356;2024-01-30T08:18:51;12.50;99.90
22035;DHT22;11181;51.002;4.356;2024-01-30T08:21:19;12.50;99.90
22035;DHT22;11181;51.002;4.356;2024-01-30T08:23:47;12.50;99.90
22035;DHT22;11181;51.002;4.356;2024-01-30T08:26:14;12.30;99.90
22035;DHT22;11181;51.002;4.356;2024-01-30T08:28:41;12.40;99.90
22035;DHT22;11181;51.002;4.356;2024-01-30T08:31:10;12.50;99.90
22035;DHT22;11181;51.002;4.356;2024-01-30T08:33:37;12.50;99.90
22035;DHT22;11181;51.002;4.356;2024-01-30T08:36:04;12.50;99.90
22035;DHT22;11181;51.002;4.356;2024-01-30T08:38:31;12.50;99.90
22035;DHT22;11181;51.002;4.356;2024-01-30T08:41:00;12.60;99.90
22035;DHT22;11181;51.002;4.356;2024-01-30T08:43:27;12.50;99.90
22035;DHT22;11181;51.002;4.356;2024-01-30T08:45:53;12.60;99.90
22035;DHT22;11181;51.002;4.356;2024-01-30T08:48:21;12.60;99.90
22035;DHT22;11181;51.002;4.356;2024-01-30T08:50:48;12.60;99.90
22035;DHT22;11181;51.002;4.356;2024-01-30T08:53:15;12.50;99.90
22035;DHT22;11181;51.002;4.356;2024-01-30T08:55:41;12.60;99.90
22035;DHT22;11181;51.002;4.356;2024-01-30T08:58:10;12.50;99.90
22035;DHT22;11181;51.002;4.356;2024-01-30T09:00:37;12.50;99.90
22035;DHT22;11181;51.002;4.356;2024-01-30T09:03:04;12.60;99.90
22035;DHT22;11181;51.002;4.356;2024-01-30T09:05:31;12.60;99.90
22035;DHT22;11181;51.002;4.356;2024-01-30T09:07:57;12.70;99.90
22035;DHT22;11181;51.002;4.356;2024-01-30T09:10:24;12.70;99.90
22035;DHT22;11181;51.002;4.356;2024-01-30T09:12:52;12.70;99.90
22035;DHT22;11181;51.002;4.356;2024-01-30T09:15:20;12.80;99.90
22035;DHT22;11181;51.002;4.356;2024-01-30T09:17:47;12.80;99.90
22035;DHT22;11181;51.002;4.356;2024-01-30T09:20:14;12.70;99.90
22035;DHT22;11181;51.002;4.356;2024-01-30T09:22:41;12.60;99.90
22035;DHT22;11181;51.002;4.356;2024-01-30T09:25:08;12.60;99.90
22035;DHT22;11181;51.002;4.356;2024-01-30T09:27:35;12.70;99.90
22035;DHT22;11181;51.002;4.356;2024-01-30T09:30:02;12.80;99.90
22035;DHT22;11181;51.002;4.356;2024-01-30T09:32:31;12.70;99.90
22035;DHT22;11181;51.002;4.356;2024-01-30T09:34:58;12.80;99.90
22035;DHT22;11181;51.002;4.356;2024-01-30T09:37:25;12.80;99.90
22035;DHT22;11181;51.002;4.356;2024-01-30T09:39:51;12.80;99.90
22035;DHT22;11181;51.002;4.356;2024-01-30T09:42:26;12.80;99.90
22035;DHT22;11181;51.002;4.356;2024-01-30T09:44:54;12.70;99.90
22035;DHT22;11181;51.002;4.356;2024-01-30T09:47:22;12.70;99.90
22035;DHT22;11181;51.002;4.356;2024-01-30T09:49:51;12.70;99.90
22035;DHT22;11181;51.002;4.356;2024-01-30T09:52:18;12.70;99.90
22035;DHT22;11181;51.002;4.356;2024-01-30T09:54:45;12.70;99.90
22035;DHT22;11181;51.002;4.356;2024-01-30T09:57:12;12.80;99.90
22035;DHT22;11181;51.002;4.356;2024-01-30T09:59:39;12.90;99.90
22035;DHT22;11181;51.002;4.356;2024-01-30T10:02:07;12.80;99.90
22035;DHT22;11181;51.002;4.356;2024-01-30T10:04:34;12.90;99.90
22035;DHT22;11181;51.002;4.356;2024-01-30T10:07:03;13.00;99.90
22035;DHT22;11181;51.002;4.356;2024-01-30T10:09:32;13.10;99.90
22035;DHT22;11181;51.002;4.356;2024-01-30T10:12:00;13.00;99.90
22035;DHT22;11181;51.002;4.356;2024-01-30T10:14:29;13.10;99.90
22035;DHT22;11181;51.002;4.356;2024-01-30T10:16:57;13.10;99.90
22035;DHT22;11181;51.002;4.356;2024-01-30T10:19:23;13.00;99.90
22035;DHT22;11181;51.002;4.356;2024-01-30T10:21:50;13.00;99.90
22035;DHT22;11181;51.002;4.356;2024-01-30T10:24:19;13.00;99.90
22035;DHT22;11181;51.002;4.356;2024-01-30T10:26:50;13.00;99.90
22035;DHT22;11181;51.002;4.356;2024-01-30T10:29:17;13.00;99.90
22035;DHT22;11181;51.002;4.356;2024-01-30T10:31:44;13.00;99.90
22035;DHT22;11181;51.002;4.356;2024-01-30T10:34:11;12.90;99.90
22035;DHT22;11181;51.002;4.356;2024-01-30T10:36:40;12.80;99.90
22035;DHT22;11181;51.002;4.356;2024-01-30T10:39:08;12.80;99.90
22035;DHT22;11181;51.002;4.356;2024-01-30T10:41:43;12.70;99.90
22035;DHT22;11181;51.002;4.356;2024-01-30T10:44:11;12.60;99.90
22035;DHT22;11181;51.002;4.356;2024-01-30T10:46:39;12.50;99.90
22035;DHT22;11181;51.002;4.356;2024-01-30T10:49:08;12.50;99.90
22035;DHT22;11181;51.002;4.356;2024-01-30T10:51:37;12.60;99.90
22035;DHT22;11181;51.002;4.356;2024-01-30T10:54:05;12.60;99.90
22035;DHT22;11181;51.002;4.356;2024-01-30T10:56:34;12.60;99.90
22035;DHT22;11181;51.002;4.356;2024-01-30T10:59:02;12.60;99.90
22035;DHT22;11181;51.002;4.356;2024-01-30T11:01:30;12.70;99.90
22035;DHT22;11181;51.002;4.356;2024-01-30T11:03:57;12.60;99.90
22035;DHT22;11181;51.002;4.356;2024-01-30T11:06:25;12.50;99.90
22035;DHT22;11181;51.002;4.356;2024-01-30T11:09:02;12.50;99.90
22035;DHT22;11181;51.002;4.356;2024-01-30T11:11:50;12.30;99.90
22035;DHT22;11181;51.002;4.356;2024-01-30T11:14:23;12.30;99.90
22035;DHT22;11181;51.002;4.356;2024-01-30T11:16:50;12.30;99.90
22035;DHT22;11181;51.002;4.356;2024-01-30T11:19:22;12.30;99.90
22035;DHT22;11181;51.002;4.356;2024-01-30T11:21:50;12.40;99.90
22035;DHT22;11181;51.002;4.356;2024-01-30T11:24:19;12.50;99.90
22035;DHT22;11181;51.002;4.356;2024-01-30T11:26:48;12.60;99.90
22035;DHT22;11181;51.002;4.356;2024-01-30T11:29:18;12.80;99.90
22035;DHT22;11181;51.002;4.356;2024-01-30T11:31:52;13.00;99.90
22035;DHT22;11181;51.002;4.356;2024-01-30T11:34:20;13.20;99.90
22035;DHT22;11181;51.002;4.356;2024-01-30T11:36:52;13.30;99.90
22035;DHT22;11181;51.002;4.356;2024-01-30T11:39:21;13.30;99.90
22035;DHT22;11181;51.002;4.356;2024-01-30T11:41:51;13.10;99.90
22035;DHT22;11181;51.002;4.356;2024-01-30T11:44:20;12.90;99.90
22035;DHT22;11181;51.002;4.356;2024-01-30T11:46:47;12.70;99.90
22035;DHT22;11181;51.002;4.356;2024-01-30T11:49:15;12.50;99.90
22035;DHT22;11181;51.002;4.356;2024-01-30T11:51:42;12.40;99.90
22035;DHT22;11181;51.002;4.356;2024-01-30T11:54:09;12.30;99.90
22035;DHT22;11181;51.002;4.356;2024-01-30T11:56:37;12.20;99.90
22035;DHT22;11181;51.002;4.356;2024-01-30T11:59:04;12.20;99.90
22035;DHT22;11181;51.002;4.356;2024-01-30T12:01:32;12.30;99.90
22035;DHT22;11181;51.002;4.356;2024-01-30T12:04:00;12.70;99.90
22035;DHT22;11181;51.002;4.356;2024-01-30T12:06:27;13.10;99.90
22035;DHT22;11181;51.002;4.356;2024-01-30T12:08:57;13.60;99.90
22035;DHT22;11181;51.002;4.356;2024-01-30T12:11:25;14.00;99.90
22035;DHT22;11181;51.002;4.356;2024-01-30T12:13:53;13.90;99.90
22035;DHT22;11181;51.002;4.356;2024-01-30T12:16:20;13.70;99.90
22035;DHT22;11181;51.002;4.356;2024-01-30T12:18:48;13.50;99.90
22035;DHT22;11181;51.002;4.356;2024-01-30T12:21:16;13.40;99.90
22035;DHT22;11181;51.002;4.356;2024-01-30T12:23:43;13.40;99.90
22035;DHT22;11181;51.002;4.356;2024-01-30T12:26:11;13.30;99.90
22035;DHT22;11181;51.002;4.356;2024-01-30T12:28:47;13.30;99.90
22035;DHT22;11181;51.002;4.356;2024-01-30T12:31:14;13.40;99.90
22035;DHT22;11181;51.002;4.356;2024-01-30T12:33:41;13.60;99.90
22035;DHT22;11181;51.002;4.356;2024-01-30T12:36:09;13.60;99.90
22035;DHT22;11181;51.002;4.356;2024-01-30T12:38:38;13.40;99.90
22035;DHT22;11181;51.002;4.356;2024-01-30T12:41:07;13.20;99.90
22035;DHT22;11181;51.002;4.356;2024-01-30T12:43:35;13.00;99.90
22035;DHT22;11181;51.002;4.356;2024-01-30T12:46:03;12.90;99.90
22035;DHT22;11181;51.002;4.356;2024-01-30T12:48:30;12.70;99.90
22035;DHT22;11181;51.002;4.356;2024-01-30T12:50:57;12.60;99.90
22035;DHT22;11181;51.002;4.356;2024-01-30T12:53:25;12.60;99.90
22035;DHT22;11181;51.002;4.356;2024-01-30T12:55:52;12.40;99.90
22035;DHT22;11181;51.002;4.356;2024-01-30T12:58:19;12.30;99.90
22035;DHT22;11181;51.002;4.356;2024-01-30T13:00:46;12.20;99.90
22035;DHT22;11181;51.002;4.356;2024-01-30T13:03:13;12.20;99.90
22035;DHT22;11181;51.002;4.356;2024-01-30T13:05:40;12.10;99.90
22035;DHT22;11181;51.002;4.356;2024-01-30T13:08:07;12.00;99.90
22035;DHT22;11181;51.002;4.356;2024-01-30T13:10:36;12.00;99.90
22035;DHT22;11181;51.002;4.356;2024-01-30T13:13:03;12.00;99.90
22035;DHT22;11181;51.002;4.356;2024-01-30T13:15:30;11.90;99.90
22035;DHT22;11181;51.002;4.356;2024-01-30T13:17:56;12.00;99.90
22035;DHT22;11181;51.002;4.356;2024-01-30T13:20:23;11.90;99.90
22035;DHT22;11181;51.002;4.356;2024-01-30T13:22:50;11.90;99.90
22035;DHT22;11181;51.002;4.356;2024-01-30T13:25:17;11.90;99.90
22035;DHT22;11181;51.002;4.356;2024-01-30T13:27:45;11.90;99.90
22035;DHT22;11181;51.002;4.356;2024-01-30T13:30:12;12.00;99.90
22035;DHT22;11181;51.002;4.356;2024-01-30T13:32:39;12.00;99.90
22035;DHT22;11181;51.002;4.356;2024-01-30T13:35:10;12.00;99.90
22035;DHT22;11181;51.002;4.356;2024-01-30T13:37:37;11.90;99.90
22035;DHT22;11181;51.002;4.356;2024-01-30T13:40:06;11.80;99.90
22035;DHT22;11181;51.002;4.356;2024-01-30T13:42:34;11.80;99.90
22035;DHT22;11181;51.002;4.356;2024-01-30T13:45:03;11.80;99.90
22035;DHT22;11181;51.002;4.356;2024-01-30T13:47:30;11.80;99.90
22035;DHT22;11181;51.002;4.356;2024-01-30T13:49:57;11.80;99.90
22035;DHT22;11181;51.002;4.356;2024-01-30T13:52:23;11.80;99.90
22035;DHT22;11181;51.002;4.356;2024-01-30T13:54:50;11.70;99.90
22035;DHT22;11181;51.002;4.356;2024-01-30T13:57:17;11.70;99.90
22035;DHT22;11181;51.002;4.356;2024-01-30T13:59:44;11.70;99.90
22035;DHT22;11181;51.002;4.356;2024-01-30T14:02:13;11.60;99.90
22035;DHT22;11181;51.002;4.356;2024-01-30T14:04:40;11.60;99.90
22035;DHT22;11181;51.002;4.356;2024-01-30T14:07:07;11.50;99.90
22035;DHT22;11181;51.002;4.356;2024-01-30T14:09:35;11.60;99.90
22035;DHT22;11181;51.002;4.356;2024-01-30T14:12:02;11.60;99.90
22035;DHT22;11181;51.002;4.356;2024-01-30T14:14:29;11.60;99.90
22035;DHT22;11181;51.002;4.356;2024-01-30T14:16:56;11.60;99.90
22035;DHT22;11181;51.002;4.356;2024-01-30T14:19:24;11.50;99.90
22035;DHT22;11181;51.002;4.356;2024-01-30T14:21:51;11.50;99.90
22035;DHT22;11181;51.002;4.356;2024-01-30T14:24:18;11.40;99.90
22035;DHT22;11181;51.002;4.356;2024-01-30T14:26:45;11.40;99.90
22035;DHT22;11181;51.002;4.356;2024-01-30T14:29:12;11.40;99.90
22035;DHT22;11181;51.002;4.356;2024-01-30T14:31:39;11.40;99.90
22035;DHT22;11181;51.002;4.356;2024-01-30T14:34:06;11.30;99.90
22035;DHT22;11181;51.002;4.356;2024-01-30T14:36:35;11.30;99.90
22035;DHT22;11181;51.002;4.356;2024-01-30T14:39:02;11.30;99.90
22035;DHT22;11181;51.002;4.356;2024-01-30T14:41:29;11.20;99.90
22035;DHT22;11181;51.002;4.356;2024-01-30T14:43:55;11.20;99.90
22035;DHT22;11181;51.002;4.356;2024-01-30T14:46:22;11.20;99.90
22035;DHT22;11181;51.002;4.356;2024-01-30T14:48:49;11.30;99.90
22035;DHT22;11181;51.002;4.356;2024-01-30T14:51:17;11.30;99.90
22035;DHT22;11181;51.002;4.356;2024-01-30T14:53:45;11.30;99.90
22035;DHT22;11181;51.002;4.356;2024-01-30T14:56:12;11.30;99.90
22035;DHT22;11181;51.002;4.356;2024-01-30T14:58:39;11.30;99.90
22035;DHT22;11181;51.002;4.356;2024-01-30T15:01:06;11.20;99.90
22035;DHT22;11181;51.002;4.356;2024-01-30T15:03:33;11.20;99.90
22035;DHT22;11181;51.002;4.356;2024-01-30T15:06:01;11.20;99.90
22035;DHT22;11181;51.002;4.356;2024-01-30T15:08:30;11.10;99.90
22035;DHT22;11181;51.002;4.356;2024-01-30T15:10:59;11.00;99.90
22035;DHT22;11181;51.002;4.356;2024-01-30T15:13:26;11.00;99.90
22035;DHT22;11181;51.002;4.356;2024-01-30T15:15:53;11.00;99.90
22035;DHT22;11181;51.002;4.356;2024-01-30T15:18:20;11.00;99.90
22035;DHT22;11181;51.002;4.356;2024-01-30T15:20:47;11.10;99.90
22035;DHT22;11181;51.002;4.356;2024-01-30T15:23:13;11.20;99.90
22035;DHT22;11181;51.002;4.356;2024-01-30T15:25:41;11.20;99.90
22035;DHT22;11181;51.002;4.356;2024-01-30T15:28:09;11.20;99.90
22035;DHT22;11181;51.002;4.356;2024-01-30T15:30:36;11.20;99.90